sensor_id;sensor_type;location;lat;lon;timestamp;pressure;altitude;pressure_sealevel;temperature;humidity
45621;BME280;31345;51.522;10.702;2023-01-28T00:01:53;100077.25;;;-0.48;100.00
45621;BME280;31345;51.522;10.702;2023-01-28T00:04:22;100078.09;;;-0.48;100.00
45621;BME280;31345;51.522;10.702;2023-01-28T00:06:51;100080.66;;;-0.45;100.00
45621;BME280;31345;51.522;10.702;2023-01-28T00:09:19;100085.00;;;-0.56;100.00
45621;BME280;31345;51.522;10.702;2023-01-28T00:11:47;100084.16;;;-0.58;100.00
45621;BME280;31345;51.522;10.702;2023-01-28T00:14:21;100084.97;;;-0.51;100.00
45621;BME280;31345;51.522;10.702;2023-01-28T00:16:50;100083.28;;;-0.60;100.00
45621;BME280;31345;51.522;10.702;2023-01-28T00:19:18;100079.03;;;-0.69;100.00
45621;BME280;31345;51.522;10.702;2023-01-28T00:21:50;100079.03;;;-0.71;100.00
45621;BME280;31345;51.522;10.702;2023-01-28T00:24:23;100079.13;;;-0.89;100.00
45621;BME280;31345;51.522;10.702;2023-01-28T00:26:50;100072.28;;;-0.97;100.00
45621;BME280;31345;51.522;10.702;2023-01-28T00:29:18;100076.56;;;-0.99;100.00
45621;BME280;31345;51.522;10.702;2023-01-28T00:31:52;100070.53;;;-0.88;100.00
45621;BME280;31345;51.522;10.702;2023-01-28T00:34:25;100067.16;;;-1.03;100.00
45621;BME280;31345;51.522;10.702;2023-01-28T00:36:58;100063.75;;;-1.10;100.00
45621;BME280;31345;51.522;10.702;2023-01-28T00:39:31;100074.00;;;-1.08;100.00
45621;BME280;31345;51.522;10.702;2023-01-28T00:42:00;100071.47;;;-1.20;100.00
45621;BME280;31345;51.522;10.702;2023-01-28T00:44:33;100080.03;;;-1.20;100.00
45621;BME280;31345;51.522;10.702;2023-01-28T00:47:04;100076.59;;;-1.19;100.00
45621;BME280;31345;51.522;10.702;2023-01-28T00:49:36;100070.63;;;-1.18;100.00
45621;BME280;31345;51.522;10.702;2023-01-28T00:52:09;100076.56;;;-0.96;100.00
45621;BME280;31345;51.522;10.702;2023-01-28T00:54:36;100076.56;;;-0.92;100.00
45621;BME280;31345;51.522;10.702;2023-01-28T00:57:09;100073.97;;;-0.96;100.00
45621;BME280;31345;51.522;10.702;2023-01-28T00:59:41;100067.13;;;-0.87;100.00
45621;BME280;31345;51.522;10.702;2023-01-28T01:02:16;100067.97;;;-0.88;100.00
45621;BME280;31345;51.522;10.702;2023-01-28T01:04:50;100069.66;;;-0.81;100.00
45621;BME280;31345;51.522;10.702;2023-01-28T01:07:27;100068.00;;;-1.07;100.00
45621;BME280;31345;51.522;10.702;2023-01-28T01:10:08;100069.72;;;-0.93;100.00
45621;BME280;31345;51.522;10.702;2023-01-28T01:12:37;100067.19;;;-1.14;100.00
45621;BME280;31345;51.522;10.702;2023-01-28T01:15:10;100078.28;;;-1.05;100.00
45621;BME280;31345;51.522;10.702;2023-01-28T01:17:41;100076.59;;;-1.16;100.00
45621;BME280;31345;51.522;10.702;2023-01-28T01:20:16;100072.31;;;-1.09;100.00
45621;BME280;31345;51.522;10.702;2023-01-28T01:22:49;100074.91;;;-1.20;100.00
45621;BME280;31345;51.522;10.702;2023-01-28T01:25:21;100080.03;;;-1.28;100.00
45621;BME280;31345;51.522;10.702;2023-01-28T01:27:54;100080.06;;;-1.48;100.00
45621;BME280;31345;51.522;10.702;2023-01-28T01:30:21;100082.59;;;-1.43;100.00
45621;BME280;31345;51.522;10.702;2023-01-28T01:32:56;100086.88;;;-1.38;100.00
45621;BME280;31345;51.522;10.702;2023-01-28T01:35:24;100080.06;;;-1.39;100.00
45621;BME280;31345;51.522;10.702;2023-01-28T01:37:52;100079.19;;;-1.14;100.00
45621;BME280;31345;51.522;10.702;2023-01-28T01:40:25;100083.44;;;-1.12;100.00
45621;BME280;31345;51.522;10.702;2023-01-28T01:42:59;100085.16;;;-1.15;100.00
45621;BME280;31345;51.522;10.702;2023-01-28T01:45:33;100077.44;;;-1.07;100.00
45621;BME280;31345;51.522;10.702;2023-01-28T01:48:05;100074.84;;;-0.93;100.00
45621;BME280;31345;51.522;10.702;2023-01-28T01:50:44;100075.63;;;-0.76;100.00
45621;BME280;31345;51.522;10.702;2023-01-28T01:53:16;100078.25;;;-0.88;100.00
45621;BME280;31345;51.522;10.702;2023-01-28T01:55:47;100069.69;;;-0.84;100.00
45621;BME280;31345;51.522;10.702;2023-01-28T01:58:18;100075.59;;;-0.62;100.00
45621;BME280;31345;51.522;10.702;2023-01-28T02:00:53;100077.34;;;-0.75;100.00
45621;BME280;31345;51.522;10.702;2023-01-28T02:03:27;100076.50;;;-0.78;100.00
45621;BME280;31345;51.522;10.702;2023-01-28T02:05:57;100083.28;;;-0.60;100.00
45621;BME280;31345;51.522;10.702;2023-01-28T02:08:30;100086.66;;;-0.46;100.00
45621;BME280;31345;51.522;10.702;2023-01-28T02:11:05;100088.41;;;-0.57;100.00
45621;BME280;31345;51.522;10.702;2023-01-28T02:13:40;100091.00;;;-0.57;100.00
45621;BME280;31345;51.522;10.702;2023-01-28T02:16:14;100089.19;;;-0.42;100.00
45621;BME280;31345;51.522;10.702;2023-01-28T02:18:48;100088.38;;;-0.45;100.00
45621;BME280;31345;51.522;10.702;2023-01-28T02:21:47;100090.88;;;-0.27;100.00
45621;BME280;31345;51.522;10.702;2023-01-28T02:27:26;100094.25;;;-0.19;100.00
45621;BME280;31345;51.522;10.702;2023-01-28T02:30:06;100096.84;;;-0.24;100.00
45621;BME280;31345;51.522;10.702;2023-01-28T02:32:48;100097.63;;;-0.08;100.00
45621;BME280;31345;51.522;10.702;2023-01-28T02:35:23;100102.84;;;-0.23;100.00
45621;BME280;31345;51.522;10.702;2023-01-28T02:38:04;100106.28;;;-0.26;100.00
45621;BME280;31345;51.522;10.702;2023-01-28T02:40:42;100115.75;;;-0.37;100.00
45621;BME280;31345;51.522;10.702;2023-01-28T02:43:35;100114.75;;;-0.13;100.00
45621;BME280;31345;51.522;10.702;2023-01-28T02:46:12;100119.94;;;-0.17;100.00
45621;BME280;31345;51.522;10.702;2023-01-28T02:49:01;100126.81;;;-0.24;100.00
45621;BME280;31345;51.522;10.702;2023-01-28T02:51:44;100128.53;;;-0.23;100.00
45621;BME280;31345;51.522;10.702;2023-01-28T02:54:33;100131.03;;;-0.09;100.00
45621;BME280;31345;51.522;10.702;2023-01-28T02:57:18;100122.47;;;-0.08;100.00
45621;BME280;31345;51.522;10.702;2023-01-28T02:59:56;100124.09;;;0.07;100.00
45621;BME280;31345;51.522;10.702;2023-01-28T03:02:36;100125.91;;;-0.06;100.00
45621;BME280;31345;51.522;10.702;2023-01-28T03:05:13;100124.94;;;0.06;100.00
45621;BME280;31345;51.522;10.702;2023-01-28T03:07:44;100129.19;;;0.13;100.00
45621;BME280;31345;51.522;10.702;2023-01-28T03:10:19;100125.75;;;0.16;100.00
45621;BME280;31345;51.522;10.702;2023-01-28T03:12:53;100131.78;;;0.12;100.00
45621;BME280;31345;51.522;10.702;2023-01-28T03:15:46;100134.38;;;0.05;100.00
45621;BME280;31345;51.522;10.702;2023-01-28T03:18:37;100126.72;;;-0.01;100.00
45621;BME280;31345;51.522;10.702;2023-01-28T03:21:32;100133.50;;;0.10;100.00
45621;BME280;31345;51.522;10.702;2023-01-28T03:24:27;100124.13;;;0.04;100.00
45621;BME280;31345;51.522;10.702;2023-01-28T03:27:25;100133.47;;;0.19;100.00
45621;BME280;31345;51.522;10.702;2023-01-28T03:30:15;100131.78;;;0.10;100.00
45621;BME280;31345;51.522;10.702;2023-01-28T03:33:08;100133.44;;;0.20;100.00
45621;BME280;31345;51.522;10.702;2023-01-28T03:36:02;100126.72;;;-0.02;100.00
45621;BME280;31345;51.522;10.702;2023-01-28T03:38:52;100135.28;;;-0.03;100.00
45621;BME280;31345;51.522;10.702;2023-01-28T03:41:25;100129.28;;;-0.02;100.00
45621;BME280;31345;51.522;10.702;2023-01-28T03:44:00;100138.69;;;-0.01;100.00
45621;BME280;31345;51.522;10.702;2023-01-28T03:46:47;100131.00;;;-0.01;100.00
45621;BME280;31345;51.522;10.702;2023-01-28T03:49:20;100131.78;;;0.10;100.00
45621;BME280;31345;51.522;10.702;2023-01-28T03:51:54;100136.91;;;0.13;100.00
45621;BME280;31345;51.522;10.702;2023-01-28T03:54:27;100134.38;;;0.05;100.00
45621;BME280;31345;51.522;10.702;2023-01-28T03:56:55;100130.09;;;0.06;100.00
45621;BME280;31345;51.522;10.702;2023-01-28T03:59:28;100128.34;;;0.10;100.00
45621;BME280;31345;51.522;10.702;2023-01-28T04:02:01;100137.03;;;-0.09;100.00
45621;BME280;31345;51.522;10.702;2023-01-28T04:04:37;100134.44;;;-0.07;100.00
45621;BME280;31345;51.522;10.702;2023-01-28T04:07:12;100131.88;;;-0.09;100.00
45621;BME280;31345;51.522;10.702;2023-01-28T04:10:08;100139.59;;;-0.10;100.00
45621;BME280;31345;51.522;10.702;2023-01-28T04:13:01;100132.59;;;0.14;100.00
45621;BME280;31345;51.522;10.702;2023-01-28T04:15:36;100134.38;;;0.05;100.00
45621;BME280;31345;51.522;10.702;2023-01-28T04:18:09;100136.97;;;0.04;100.00
45621;BME280;31345;51.522;10.702;2023-01-28T04:20:42;100139.50;;;0.13;100.00
45621;BME280;31345;51.522;10.702;2023-01-28T04:23:16;100143.84;;;0.02;100.00
45621;BME280;31345;51.522;10.702;2023-01-28T04:25:49;100139.56;;;-0.02;98.39
45621;BME280;31345;51.522;10.702;2023-01-28T04:28:18;100129.28;;;0.02;100.00
45621;BME280;31345;51.522;10.702;2023-01-28T04:30:50;100138.69;;;0.00;100.00
45621;BME280;31345;51.522;10.702;2023-01-28T04:33:24;100142.22;;;-0.15;100.00
45621;BME280;31345;51.522;10.702;2023-01-28T04:36:06;100131.94;;;-0.24;100.00
45621;BME280;31345;51.522;10.702;2023-01-28T04:39:19;100136.19;;;-0.06;100.00
45621;BME280;31345;51.522;10.702;2023-01-28T04:42:10;100136.13;;;-0.03;100.00
45621;BME280;31345;51.522;10.702;2023-01-28T04:45:03;100139.50;;;0.09;100.00
45621;BME280;31345;51.522;10.702;2023-01-28T04:47:53;100139.56;;;-0.01;100.00
45621;BME280;31345;51.522;10.702;2023-01-28T04:50:52;100133.59;;;-0.06;100.00
45621;BME280;31345;51.522;10.702;2023-01-28T04:53:33;100137.00;;;-0.04;100.00
45621;BME280;31345;51.522;10.702;2023-01-28T04:56:13;100137.06;;;-0.15;100.00
45621;BME280;31345;51.522;10.702;2023-01-28T04:58:45;100136.19;;;-0.09;98.95
45621;BME280;31345;51.522;10.702;2023-01-28T05:01:15;100140.44;;;-0.05;100.00
45621;BME280;31345;51.522;10.702;2023-01-28T05:03:48;100143.03;;;-0.05;100.00
45621;BME280;31345;51.522;10.702;2023-01-28T05:06:27;100138.72;;;-0.04;100.00
45621;BME280;31345;51.522;10.702;2023-01-28T05:09:01;100142.97;;;-0.00;100.00
45621;BME280;31345;51.522;10.702;2023-01-28T05:11:31;100148.22;;;-0.19;100.00
45621;BME280;31345;51.522;10.702;2023-01-28T05:14:08;100149.91;;;-0.15;100.00
45621;BME280;31345;51.522;10.702;2023-01-28T05:17:08;100153.28;;;-0.02;100.00
45621;BME280;31345;51.522;10.702;2023-01-28T05:19:41;100151.69;;;-0.25;100.00
45621;BME280;31345;51.522;10.702;2023-01-28T05:22:22;100167.03;;;-0.12;100.00
45621;BME280;31345;51.522;10.702;2023-01-28T05:25:09;100160.16;;;-0.09;99.63
45621;BME280;31345;51.522;10.702;2023-01-28T05:27:38;100161.84;;;0.00;99.53
45621;BME280;31345;51.522;10.702;2023-01-28T05:30:11;100163.59;;;-0.10;96.89
45621;BME280;31345;51.522;10.702;2023-01-28T05:32:44;100160.97;;;0.01;98.78
45621;BME280;31345;51.522;10.702;2023-01-28T05:35:14;100164.53;;;-0.23;98.31
45621;BME280;31345;51.522;10.702;2023-01-28T05:37:41;100164.47;;;-0.19;98.26
45621;BME280;31345;51.522;10.702;2023-01-28T05:40:16;100156.81;;;-0.23;98.84
45621;BME280;31345;51.522;10.702;2023-01-28T05:42:50;100158.50;;;-0.21;100.00
45621;BME280;31345;51.522;10.702;2023-01-28T05:45:36;100168.84;;;-0.32;98.67
45621;BME280;31345;51.522;10.702;2023-01-28T05:48:22;100166.22;;;-0.24;97.81
45621;BME280;31345;51.522;10.702;2023-01-28T05:51:12;100173.88;;;-0.14;99.28
45621;BME280;31345;51.522;10.702;2023-01-28T05:53:49;100173.88;;;-0.11;97.03
45621;BME280;31345;51.522;10.702;2023-01-28T05:56:22;100173.94;;;-0.17;96.31
45621;BME280;31345;51.522;10.702;2023-01-28T05:58:56;100169.63;;;-0.15;97.22
45621;BME280;31345;51.522;10.702;2023-01-28T06:01:31;100174.81;;;-0.28;96.55
45621;BME280;31345;51.522;10.702;2023-01-28T06:04:07;100179.06;;;-0.17;96.67
45621;BME280;31345;51.522;10.702;2023-01-28T06:06:34;100182.53;;;-0.33;93.09
45621;BME280;31345;51.522;10.702;2023-01-28T06:09:09;100185.09;;;-0.29;95.67
45621;BME280;31345;51.522;10.702;2023-01-28T06:11:42;100180.81;;;-0.37;93.43
45621;BME280;31345;51.522;10.702;2023-01-28T06:14:17;100180.81;;;-0.32;93.97
45621;BME280;31345;51.522;10.702;2023-01-28T06:17:05;100184.25;;;-0.32;96.19
45621;BME280;31345;51.522;10.702;2023-01-28T06:20:13;100181.66;;;-0.28;94.92
45621;BME280;31345;51.522;10.702;2023-01-28T06:22:49;100185.09;;;-0.26;97.12
45621;BME280;31345;51.522;10.702;2023-01-28T06:25:22;100199.63;;;-0.16;96.88
45621;BME280;31345;51.522;10.702;2023-01-28T06:27:55;100198.81;;;-0.27;95.38
45621;BME280;31345;51.522;10.702;2023-01-28T06:30:24;100204.81;;;-0.32;95.91
45621;BME280;31345;51.522;10.702;2023-01-28T06:32:57;100197.97;;;-0.39;97.11
45621;BME280;31345;51.522;10.702;2023-01-28T06:35:30;100200.50;;;-0.33;95.92
45621;BME280;31345;51.522;10.702;2023-01-28T06:38:03;100199.69;;;-0.39;95.41
45621;BME280;31345;51.522;10.702;2023-01-28T06:40:35;100192.84;;;-0.37;95.10
45621;BME280;31345;51.522;10.702;2023-01-28T06:43:08;100203.06;;;-0.25;96.81
45621;BME280;31345;51.522;10.702;2023-01-28T06:45:42;100206.53;;;-0.29;97.68
45621;BME280;31345;51.522;10.702;2023-01-28T06:48:15;100204.81;;;-0.32;96.20
45621;BME280;31345;51.522;10.702;2023-01-28T06:50:48;100209.97;;;-0.32;97.85
45621;BME280;31345;51.522;10.702;2023-01-28T06:53:16;100204.81;;;-0.32;96.19
45621;BME280;31345;51.522;10.702;2023-01-28T06:55:44;100207.38;;;-0.32;97.96
45621;BME280;31345;51.522;10.702;2023-01-28T06:58:17;100207.38;;;-0.38;96.79
45621;BME280;31345;51.522;10.702;2023-01-28T07:00:51;100204.78;;;-0.19;96.92
45621;BME280;31345;51.522;10.702;2023-01-28T07:03:20;100209.09;;;-0.35;96.33
45621;BME280;31345;51.522;10.702;2023-01-28T07:05:52;100217.63;;;-0.25;94.78
45621;BME280;31345;51.522;10.702;2023-01-28T07:08:23;100210.78;;;-0.29;95.47
45621;BME280;31345;51.522;10.702;2023-01-28T07:10:56;100212.53;;;-0.36;95.26
45621;BME280;31345;51.522;10.702;2023-01-28T07:13:25;100211.69;;;-0.41;95.59
45621;BME280;31345;51.522;10.702;2023-01-28T07:15:55;100221.09;;;-0.40;95.36
45621;BME280;31345;51.522;10.702;2023-01-28T07:18:29;100223.69;;;-0.39;96.22
45621;BME280;31345;51.522;10.702;2023-01-28T07:20:58;100220.28;;;-0.44;94.47
45621;BME280;31345;51.522;10.702;2023-01-28T07:23:31;100222.84;;;-0.46;96.09
45621;BME280;31345;51.522;10.702;2023-01-28T07:26:04;100222.81;;;-0.32;93.71
45621;BME280;31345;51.522;10.702;2023-01-28T07:28:32;100222.00;;;-0.55;92.20
45621;BME280;31345;51.522;10.702;2023-01-28T07:31:06;100219.38;;;-0.38;95.08
45621;BME280;31345;51.522;10.702;2023-01-28T07:33:39;100217.66;;;-0.41;93.85
45621;BME280;31345;51.522;10.702;2023-01-28T07:36:06;100215.09;;;-0.35;92.84
45621;BME280;31345;51.522;10.702;2023-01-28T07:38:34;100219.41;;;-0.43;95.17
45621;BME280;31345;51.522;10.702;2023-01-28T07:41:01;100226.28;;;-0.48;95.59
45621;BME280;31345;51.522;10.702;2023-01-28T07:43:29;100229.69;;;-0.62;93.05
45621;BME280;31345;51.522;10.702;2023-01-28T07:45:59;100222.00;;;-0.63;93.91
45621;BME280;31345;51.522;10.702;2023-01-28T07:48:33;100222.88;;;-0.66;94.59
45621;BME280;31345;51.522;10.702;2023-01-28T07:51:06;100227.13;;;-0.49;95.16
45621;BME280;31345;51.522;10.702;2023-01-28T07:53:33;100224.56;;;-0.54;92.32
45621;BME280;31345;51.522;10.702;2023-01-28T07:56:06;100218.56;;;-0.53;93.12
45621;BME280;31345;51.522;10.702;2023-01-28T07:58:39;100214.28;;;-0.62;93.57
45621;BME280;31345;51.522;10.702;2023-01-28T08:01:11;100216.84;;;-0.49;94.87
45621;BME280;31345;51.522;10.702;2023-01-28T08:03:46;100227.13;;;-0.40;93.89
45621;BME280;31345;51.522;10.702;2023-01-28T08:06:18;100221.94;;;-0.35;95.30
45621;BME280;31345;51.522;10.702;2023-01-28T08:08:49;100221.06;;;-0.26;93.93
45621;BME280;31345;51.522;10.702;2023-01-28T08:11:22;100217.63;;;-0.22;92.58
45621;BME280;31345;51.522;10.702;2023-01-28T08:13:54;100214.22;;;-0.35;92.17
45621;BME280;31345;51.522;10.702;2023-01-28T08:16:22;100224.50;;;-0.30;93.41
45621;BME280;31345;51.522;10.702;2023-01-28T08:18:51;100229.66;;;-0.35;92.53
45621;BME280;31345;51.522;10.702;2023-01-28T08:21:24;100224.50;;;-0.37;92.47
45621;BME280;31345;51.522;10.702;2023-01-28T08:23:57;100233.06;;;-0.24;91.91
45621;BME280;31345;51.522;10.702;2023-01-28T08:26:26;100233.06;;;-0.24;92.67
45621;BME280;31345;51.522;10.702;2023-01-28T08:28:58;100240.75;;;-0.16;92.80
45621;BME280;31345;51.522;10.702;2023-01-28T08:31:31;100243.28;;;-0.10;91.29
45621;BME280;31345;51.522;10.702;2023-01-28T08:34:06;100248.44;;;-0.05;93.88
45621;BME280;31345;51.522;10.702;2023-01-28T08:36:34;100254.44;;;-0.09;92.47
45621;BME280;31345;51.522;10.702;2023-01-28T08:39:02;100256.13;;;-0.03;92.23
45621;BME280;31345;51.522;10.702;2023-01-28T08:41:31;100260.50;;;-0.26;90.14
45621;BME280;31345;51.522;10.702;2023-01-28T08:43:58;100257.84;;;-0.10;93.16
45621;BME280;31345;51.522;10.702;2023-01-28T08:46:31;100264.75;;;-0.25;91.97
45621;BME280;31345;51.522;10.702;2023-01-28T08:48:59;100262.97;;;-0.06;90.55
45621;BME280;31345;51.522;10.702;2023-01-28T08:51:28;100269.84;;;-0.04;92.26
45621;BME280;31345;51.522;10.702;2023-01-28T08:54:01;100256.16;;;-0.11;90.91
45621;BME280;31345;51.522;10.702;2023-01-28T08:56:34;100266.44;;;-0.05;90.50
45621;BME280;31345;51.522;10.702;2023-01-28T08:59:09;100269.00;;;-0.03;89.99
45621;BME280;31345;51.522;10.702;2023-01-28T09:01:42;100257.00;;;-0.06;89.92
45621;BME280;31345;51.522;10.702;2023-01-28T09:04:14;100264.72;;;-0.19;90.84
45621;BME280;31345;51.522;10.702;2023-01-28T09:06:43;100262.22;;;-0.34;89.77
45621;BME280;31345;51.522;10.702;2023-01-28T09:09:16;100265.63;;;-0.32;89.44
45621;BME280;31345;51.522;10.702;2023-01-28T09:11:49;100268.16;;;-0.24;88.84
45621;BME280;31345;51.522;10.702;2023-01-28T09:14:21;100269.00;;;-0.08;91.14
45621;BME280;31345;51.522;10.702;2023-01-28T09:16:54;100270.66;;;0.15;89.68
45621;BME280;31345;51.522;10.702;2023-01-28T09:19:21;100267.25;;;0.08;87.70
45621;BME280;31345;51.522;10.702;2023-01-28T09:21:50;100271.53;;;0.07;87.59
45621;BME280;31345;51.522;10.702;2023-01-28T09:24:23;100275.78;;;0.18;89.18
45621;BME280;31345;51.522;10.702;2023-01-28T09:26:56;100276.78;;;-0.33;86.06
45621;BME280;31345;51.522;10.702;2023-01-28T09:29:28;100280.97;;;-0.06;88.52
45621;BME280;31345;51.522;10.702;2023-01-28T09:32:01;100293.78;;;0.10;89.86
45621;BME280;31345;51.522;10.702;2023-01-28T09:34:33;100290.41;;;0.03;87.00
45621;BME280;31345;51.522;10.702;2023-01-28T09:37:07;100292.91;;;0.17;89.61
45621;BME280;31345;51.522;10.702;2023-01-28T09:39:36;100297.22;;;0.11;88.41
45621;BME280;31345;51.522;10.702;2023-01-28T09:42:23;100302.41;;;-0.08;88.43
45621;BME280;31345;51.522;10.702;2023-01-28T09:45:01;100317.88;;;-0.22;85.47
45621;BME280;31345;51.522;10.702;2023-01-28T09:47:40;100321.28;;;-0.09;83.05
45621;BME280;31345;51.522;10.702;2023-01-28T09:50:17;100314.44;;;-0.13;85.70
45621;BME280;31345;51.522;10.702;2023-01-28T09:52:48;100317.00;;;-0.23;84.99
45621;BME280;31345;51.522;10.702;2023-01-28T09:55:30;100318.72;;;-0.14;84.79
45621;BME280;31345;51.522;10.702;2023-01-28T09:58:05;100311.78;;;0.10;87.83
45621;BME280;31345;51.522;10.702;2023-01-28T10:00:49;100305.81;;;0.02;88.74
45621;BME280;31345;51.522;10.702;2023-01-28T10:03:32;100301.47;;;0.23;87.74
45621;BME280;31345;51.522;10.702;2023-01-28T10:06:21;100299.81;;;0.03;84.00
45621;BME280;31345;51.522;10.702;2023-01-28T10:09:06;100304.94;;;0.09;85.76
45621;BME280;31345;51.522;10.702;2023-01-28T10:11:53;100308.41;;;0.06;85.31
45621;BME280;31345;51.522;10.702;2023-01-28T10:14:40;100316.91;;;0.19;88.58
45621;BME280;31345;51.522;10.702;2023-01-28T10:17:21;100328.09;;;0.09;88.93
45621;BME280;31345;51.522;10.702;2023-01-28T10:20:01;100316.94;;;0.10;85.71
45621;BME280;31345;51.522;10.702;2023-01-28T10:22:39;100325.56;;;-0.05;84.76
45621;BME280;31345;51.522;10.702;2023-01-28T10:25:18;100330.69;;;-0.11;86.37
45621;BME280;31345;51.522;10.702;2023-01-28T10:27:47;100324.72;;;-0.18;85.07
45621;BME280;31345;51.522;10.702;2023-01-28T10:30:18;100324.66;;;0.12;87.37
45621;BME280;31345;51.522;10.702;2023-01-28T10:32:51;100319.47;;;0.26;86.32
45621;BME280;31345;51.522;10.702;2023-01-28T10:35:20;100322.84;;;0.39;86.62
45621;BME280;31345;51.522;10.702;2023-01-28T10:37:48;100316.84;;;0.41;84.70
45621;BME280;31345;51.522;10.702;2023-01-28T10:40:18;100308.31;;;0.25;85.62
45621;BME280;31345;51.522;10.702;2023-01-28T10:42:45;100304.88;;;0.28;83.41
45621;BME280;31345;51.522;10.702;2023-01-28T10:45:17;100300.59;;;0.30;85.44
45621;BME280;31345;51.522;10.702;2023-01-28T10:47:55;100304.81;;;0.46;86.20
45621;BME280;31345;51.522;10.702;2023-01-28T10:50:29;100304.84;;;0.32;84.65
45621;BME280;31345;51.522;10.702;2023-01-28T10:52:59;100295.38;;;0.42;87.03
45621;BME280;31345;51.522;10.702;2023-01-28T10:55:37;100284.31;;;0.25;84.00
45621;BME280;31345;51.522;10.702;2023-01-28T10:58:20;100289.41;;;0.36;86.21
45621;BME280;31345;51.522;10.702;2023-01-28T11:00:52;100291.13;;;0.38;83.39
45621;BME280;31345;51.522;10.702;2023-01-28T11:03:22;100292.00;;;0.29;83.93
45621;BME280;31345;51.522;10.702;2023-01-28T11:05:54;100287.72;;;0.33;85.71
45621;BME280;31345;51.522;10.702;2023-01-28T11:08:23;100292.91;;;0.14;84.29
45621;BME280;31345;51.522;10.702;2023-01-28T11:10:56;100297.19;;;0.18;85.74
45621;BME280;31345;51.522;10.702;2023-01-28T11:13:29;100299.81;;;0.11;85.51
45621;BME280;31345;51.522;10.702;2023-01-28T11:16:04;100303.19;;;0.22;87.46
45621;BME280;31345;51.522;10.702;2023-01-28T11:18:39;100304.91;;;0.23;88.67
45621;BME280;31345;51.522;10.702;2023-01-28T11:21:16;100297.16;;;0.28;89.21
45621;BME280;31345;51.522;10.702;2023-01-28T11:23:53;100305.81;;;0.03;87.60
45621;BME280;31345;51.522;10.702;2023-01-28T11:26:24;100304.13;;;-0.09;88.03
45621;BME280;31345;51.522;10.702;2023-01-28T11:28:54;100315.28;;;-0.08;88.21
45621;BME280;31345;51.522;10.702;2023-01-28T11:31:27;100303.25;;;0.02;86.34
45621;BME280;31345;51.522;10.702;2023-01-28T11:34:01;100305.00;;;-0.10;87.23
45621;BME280;31345;51.522;10.702;2023-01-28T11:36:36;100302.44;;;-0.16;87.51
45621;BME280;31345;51.522;10.702;2023-01-28T11:39:19;100309.28;;;-0.15;88.12
45621;BME280;31345;51.522;10.702;2023-01-28T11:41:53;100295.50;;;0.10;89.65
45621;BME280;31345;51.522;10.702;2023-01-28T11:44:22;100290.28;;;0.30;87.32
45621;BME280;31345;51.522;10.702;2023-01-28T11:47:01;100285.97;;;0.35;86.02
45621;BME280;31345;51.522;10.702;2023-01-28T11:49:42;100288.53;;;0.40;87.19
45621;BME280;31345;51.522;10.702;2023-01-28T11:52:27;100273.31;;;-0.16;82.55
45621;BME280;31345;51.522;10.702;2023-01-28T11:55:18;100284.47;;;-0.19;84.56
45621;BME280;31345;51.522;10.702;2023-01-28T11:57:50;100280.06;;;0.13;86.84
45621;BME280;31345;51.522;10.702;2023-01-28T12:00:37;100280.09;;;0.08;84.21
45621;BME280;31345;51.522;10.702;2023-01-28T12:03:25;100276.72;;;-0.03;85.65
45621;BME280;31345;51.522;10.702;2023-01-28T12:09:14;100270.59;;;0.23;87.70
45621;BME280;31345;51.522;10.702;2023-01-28T12:11:46;100264.56;;;0.31;84.85
45621;BME280;31345;51.522;10.702;2023-01-28T12:14:43;100264.63;;;0.22;85.30
45621;BME280;31345;51.522;10.702;2023-01-28T12:17:30;100268.78;;;0.46;86.82
45621;BME280;31345;51.522;10.702;2023-01-28T12:20:09;100266.19;;;0.51;86.09
45621;BME280;31345;51.522;10.702;2023-01-28T12:23:02;100275.66;;;0.46;85.92
45621;BME280;31345;51.522;10.702;2023-01-28T12:25:51;100280.81;;;0.43;86.06
